createdAt,value
2022-10-23T00:00:41.763Z,101380.75
2022-10-23T00:03:09.346Z,101377.00
2022-10-23T00:05:41.440Z,101368.03
2022-10-23T00:08:09.557Z,101371.25
2022-10-23T00:10:37.371Z,101377.44
2022-10-23T00:13:06.459Z,101371.31
2022-10-23T00:15:36.758Z,101374.56
2022-10-23T00:18:05.111Z,101382.59
2022-10-23T00:20:32.809Z,101381.78
2022-10-23T00:23:00.568Z,101381.00
2022-10-23T00:25:28.335Z,101378.63
2022-10-23T00:27:56.071Z,101381.56
2022-10-23T00:30:25.246Z,101378.91
2022-10-23T00:32:53.029Z,101374.13
2022-10-23T00:35:20.782Z,101373.81
2022-10-23T00:37:48.643Z,101370.66
2022-10-23T00:40:16.412Z,101369.88
2022-10-23T00:42:44.378Z,101369.88
2022-10-23T00:45:20.714Z,101357.16
2022-10-23T00:47:50.264Z,101361.66
2022-10-23T00:50:18.506Z,101359.31
2022-10-23T00:52:49.572Z,101359.88
2022-10-23T00:55:19.302Z,101356.72
2022-10-23T00:57:48.999Z,101357.81
2022-10-23T01:00:20.641Z,101361.81
2022-10-23T01:02:50.186Z,101365.28
2022-10-23T01:05:18.621Z,101355.72
2022-10-23T01:07:53.829Z,101357.31
2022-10-23T01:10:31.482Z,101353.56
2022-10-23T01:13:04.944Z,101362.63
2022-10-23T01:15:38.491Z,101371.13
2022-10-23T01:18:17.984Z,101369.03
2022-10-23T01:20:49.325Z,101362.44
2022-10-23T01:23:55.060Z,101353.66
2022-10-23T01:26:50.278Z,101353.97
2022-10-23T01:29:25.661Z,101352.66
2022-10-23T01:32:00.002Z,101347.91
2022-10-23T01:34:33.137Z,101356.69
2022-10-23T01:37:03.267Z,101346.34
2022-10-23T01:39:36.957Z,101340.53
2022-10-23T01:42:09.703Z,101342.41
2022-10-23T01:44:43.798Z,101341.09
2022-10-23T01:47:14.177Z,101340.53
2022-10-23T01:49:43.886Z,101333.38
2022-10-23T01:52:15.131Z,101331.78
2022-10-23T01:54:45.854Z,101329.91
2022-10-23T01:57:17.882Z,101325.41
2022-10-23T01:59:50.739Z,101321.16
2022-10-23T02:02:20.115Z,101326.47
2022-10-23T02:04:57.503Z,101315.06
2022-10-23T02:07:25.657Z,101311.59
2022-10-23T02:09:53.672Z,101308.44
2022-10-23T02:15:07.203Z,101303.44
2022-10-23T02:17:47.275Z,101306.09
2022-10-23T02:20:21.252Z,101298.13
2022-10-23T02:22:58.565Z,101296.53
2022-10-23T02:25:33.292Z,101288.06
2022-10-23T02:28:04.365Z,101291.50
2022-10-23T02:30:36.690Z,101290.22
2022-10-23T02:33:06.330Z,101279.59
2022-10-23T02:35:34.305Z,101271.13
2022-10-23T02:38:02.074Z,101264.22
2022-10-23T02:40:36.897Z,101268.53
2022-10-23T02:43:08.027Z,101264.03
2022-10-23T02:45:46.216Z,101277.06
2022-10-23T02:48:20.178Z,101277.34
2022-10-23T02:51:01.905Z,101269.38
2022-10-23T02:53:38.287Z,101275.50
2022-10-23T02:56:14.191Z,101270.19
2022-10-23T02:58:46.833Z,101266.75
2022-10-23T03:01:19.163Z,101273.41
2022-10-23T03:03:52.549Z,101270.25
2022-10-23T03:06:20.659Z,101266.28
2022-10-23T03:08:53.430Z,101250.66
2022-10-23T03:11:21.230Z,101250.66
2022-10-23T03:13:48.969Z,101254.38
2022-10-23T03:16:18.000Z,101255.44
2022-10-23T03:18:45.666Z,101247.78
2022-10-23T03:21:13.469Z,101246.22
2022-10-23T03:23:41.233Z,101231.06
2022-10-23T03:26:09.128Z,101233.22
2022-10-23T03:28:36.855Z,101235.59
2022-10-23T03:31:05.191Z,101240.63
2022-10-23T03:33:34.236Z,101239.03
2022-10-23T03:36:02.004Z,101228.41
2022-10-23T03:38:29.926Z,101229.50
2022-10-23T03:40:57.616Z,101222.59
2022-10-23T03:43:25.294Z,101220.44
2022-10-23T03:45:53.049Z,101215.38
2022-10-23T03:48:20.737Z,101213.53
2022-10-23T03:50:49.922Z,101218.81
2022-10-23T03:53:17.646Z,101216.94
2022-10-23T03:55:45.939Z,101206.34
2022-10-23T03:58:13.720Z,101198.09
2022-10-23T04:03:14.139Z,101193.59
2022-10-23T04:05:42.133Z,101183.75
2022-10-23T04:08:12.668Z,101171.56
2022-10-23T04:10:41.871Z,101185.91
2022-10-23T04:13:09.580Z,101173.72
2022-10-23T04:15:37.326Z,101174.78
2022-10-23T04:18:05.419Z,101174.78
2022-10-23T04:20:33.086Z,101159.94
2022-10-23T04:23:00.760Z,101161.53
2022-10-23T04:25:29.873Z,101160.47
2022-10-23T04:27:57.505Z,101157.81
2022-10-23T04:30:25.194Z,101156.50
2022-10-23T04:32:53.305Z,101159.66
2022-10-23T04:35:21.232Z,101155.16
2022-10-23T04:37:48.951Z,101150.13
2022-10-23T04:40:16.781Z,101145.59
2022-10-23T04:42:45.878Z,101140.31
2022-10-23T04:45:13.735Z,101136.59
2022-10-23T04:47:41.377Z,101135.50
2022-10-23T04:50:09.308Z,101141.88
2022-10-23T04:52:37.011Z,101135.00
2022-10-23T04:55:05.347Z,101132.34
2022-10-23T04:57:33.063Z,101130.47
2022-10-23T05:00:02.349Z,101127.81
2022-10-23T05:02:30.098Z,101127.31
2022-10-23T05:04:57.799Z,101130.75
2022-10-23T05:07:25.505Z,101122.03
2022-10-23T05:09:53.245Z,101123.09
2022-10-23T05:12:20.937Z,101129.47
2022-10-23T05:14:48.650Z,101115.13
2022-10-23T05:17:22.537Z,101124.38
2022-10-23T05:19:54.531Z,101121.72
2022-10-23T05:22:25.243Z,101122.22
2022-10-23T05:24:53.219Z,101117.72
2022-10-23T05:27:21.023Z,101124.59
2022-10-23T05:29:51.871Z,101126.97
2022-10-23T05:34:54.537Z,101122.66
2022-10-23T05:37:22.743Z,101120.50
2022-10-23T05:39:50.460Z,101119.94
2022-10-23T05:42:18.246Z,101110.91
2022-10-23T05:44:45.969Z,101118.88
2022-10-23T05:47:13.683Z,101118.88
2022-10-23T05:49:42.811Z,101114.63
2022-10-23T05:52:12.111Z,101116.97
2022-10-23T05:54:39.906Z,101114.06
2022-10-23T05:57:07.762Z,101111.66
2022-10-23T05:59:35.545Z,101115.63
2022-10-23T06:02:03.359Z,101105.00
2022-10-23T06:04:31.251Z,101102.34
2022-10-23T06:07:00.299Z,101095.97
2022-10-23T06:09:27.993Z,101097.53
2022-10-23T06:11:55.695Z,101094.63
2022-10-23T06:14:23.379Z,101091.66
2022-10-23T06:16:51.117Z,101093.25
2022-10-23T06:19:18.801Z,101093.25
2022-10-23T06:21:46.553Z,101088.75
2022-10-23T06:24:15.669Z,101075.47
2022-10-23T06:26:43.300Z,101078.63
2022-10-23T06:29:10.993Z,101069.84
2022-10-23T06:31:38.669Z,101076.72
2022-10-23T06:34:07.059Z,101069.56
2022-10-23T06:36:34.964Z,101066.63
2022-10-23T06:39:02.628Z,101067.13
2022-10-23T06:41:31.750Z,101064.47
2022-10-23T06:43:59.407Z,101064.97
2022-10-23T06:46:29.854Z,101060.16
2022-10-23T06:48:57.497Z,101062.81
2022-10-23T06:51:29.578Z,101048.47
2022-10-23T06:53:57.848Z,101052.69
2022-10-23T06:56:29.383Z,101054.28
2022-10-23T06:58:58.483Z,101047.09
2022-10-23T07:01:26.409Z,101040.41
2022-10-23T07:03:54.029Z,101043.56
2022-10-23T07:06:21.689Z,101046.22
2022-10-23T07:08:49.654Z,101044.56
2022-10-23T07:11:18.217Z,101041.31
2022-10-23T07:13:46.706Z,101043.69
2022-10-23T07:16:17.877Z,101052.13
2022-10-23T07:18:45.999Z,101056.88
2022-10-23T07:21:13.788Z,101047.53
2022-10-23T07:23:41.549Z,101044.28
2022-10-23T07:26:12.075Z,101041.03
2022-10-23T07:28:41.379Z,101046.28
2022-10-23T07:31:09.659Z,101043.53
2022-10-23T07:33:39.741Z,101042.94
2022-10-23T07:36:09.228Z,101040.47
2022-10-23T07:38:37.260Z,101040.69
2022-10-23T07:41:06.859Z,101036.03
2022-10-23T07:43:36.741Z,101030.47
2022-10-23T07:46:04.868Z,101028.78
2022-10-23T07:48:32.569Z,101032.09
2022-10-23T07:51:03.559Z,101031.25
2022-10-23T07:53:31.338Z,101024.53
2022-10-23T07:56:01.258Z,101031.59
2022-10-23T07:58:29.942Z,101016.66
2022-10-23T08:00:59.451Z,101016.84
2022-10-23T08:03:27.185Z,101018.63
2022-10-23T08:05:55.737Z,101011.34
2022-10-23T08:08:25.367Z,101006.72
2022-10-23T08:10:55.100Z,101006.31
2022-10-23T08:13:23.269Z,101005.41
2022-10-23T08:15:53.074Z,101006.38
2022-10-23T08:18:21.060Z,101004.09
2022-10-23T08:20:51.112Z,101016.50
2022-10-23T08:23:20.248Z,101009.78
2022-10-23T08:25:49.396Z,101010.25
2022-10-23T08:28:17.013Z,101005.94
2022-10-23T08:30:44.708Z,101009.56
2022-10-23T08:33:12.458Z,101005.19
2022-10-23T08:35:40.608Z,100998.19
2022-10-23T08:38:08.370Z,100990.09
2022-10-23T08:40:36.862Z,100985.75
2022-10-23T08:43:14.223Z,100976.06
2022-10-23T08:45:46.218Z,100973.44
2022-10-23T08:48:20.146Z,100973.31
2022-10-23T08:50:54.005Z,100958.03
2022-10-23T08:53:27.329Z,100953.66
2022-10-23T08:56:02.189Z,100957.75
2022-10-23T08:58:37.310Z,100953.88
2022-10-23T09:01:27.805Z,100957.66
2022-10-23T09:03:55.648Z,100960.72
2022-10-23T09:06:37.875Z,100957.59
2022-10-23T09:09:37.301Z,100950.09
2022-10-23T09:12:10.195Z,100946.22
2022-10-23T09:15:13.867Z,100945.75
2022-10-23T09:17:44.024Z,100925.84
2022-10-23T09:20:21.510Z,100931.38
2022-10-23T09:22:50.852Z,100926.50
2022-10-23T09:25:21.174Z,100926.19
2022-10-23T09:27:56.165Z,100913.31
2022-10-23T09:30:35.019Z,100920.72
2022-10-23T09:33:15.102Z,100921.19
2022-10-23T09:35:54.573Z,100922.75
2022-10-23T09:38:28.870Z,100917.44
2022-10-23T09:40:57.076Z,100919.31
2022-10-23T09:43:27.483Z,100915.09
2022-10-23T09:46:01.857Z,100909.25
2022-10-23T09:48:29.900Z,100900.19
2022-10-23T09:50:59.444Z,100903.31
2022-10-23T09:53:34.941Z,100903.00
2022-10-23T09:56:04.995Z,100882.16
2022-10-23T09:58:35.813Z,100889.97
2022-10-23T10:01:05.825Z,100893.63
2022-10-23T10:03:33.637Z,100899.09
2022-10-23T10:06:02.857Z,100889.69
2022-10-23T10:08:40.306Z,100890.63
2022-10-23T10:11:15.509Z,100880.91
2022-10-23T10:14:02.609Z,100879.97
2022-10-23T10:16:43.969Z,100875.56
2022-10-23T10:19:17.376Z,100864.28
2022-10-23T10:21:53.994Z,100871.63
2022-10-23T10:24:26.011Z,100867.25
2022-10-23T10:27:02.637Z,100865.03
2022-10-23T10:29:45.731Z,100852.63
2022-10-23T10:32:32.093Z,100844.78
2022-10-23T10:35:20.437Z,100841.97
2022-10-23T10:38:12.589Z,100833.31
2022-10-23T10:40:43.727Z,100835.84
2022-10-23T10:43:30.660Z,100818.06
2022-10-23T10:46:05.044Z,100823.56
2022-10-23T10:48:43.248Z,100821.03
2022-10-23T10:51:19.501Z,100811.63
2022-10-23T10:54:02.480Z,100799.69
2022-10-23T10:56:34.868Z,100789.13
2022-10-23T10:59:06.942Z,100783.16
2022-10-23T11:01:38.309Z,100780.31
2022-10-23T11:04:14.827Z,100782.47
2022-10-23T11:06:47.226Z,100792.97
2022-10-23T11:09:20.927Z,100783.19
2022-10-23T11:11:49.875Z,100778.13
2022-10-23T11:14:18.681Z,100771.38
2022-10-23T11:16:48.979Z,100771.03
2022-10-23T11:19:24.731Z,100773.06
2022-10-23T11:21:59.387Z,100773.84
2022-10-23T11:24:57.343Z,100775.56
2022-10-23T11:27:42.519Z,100763.25
2022-10-23T11:30:31.733Z,100757.84
2022-10-23T11:33:46.816Z,100744.88
2022-10-23T11:36:19.276Z,100737.56
2022-10-23T11:38:50.068Z,100730.41
2022-10-23T11:41:25.358Z,100729.81
2022-10-23T11:43:56.972Z,100719.69
2022-10-23T11:46:33.241Z,100722.66
2022-10-23T11:49:03.134Z,100709.06
2022-10-23T11:51:34.812Z,100698.91
2022-10-23T11:54:24.332Z,100695.25
2022-10-23T11:56:55.649Z,100706.41
2022-10-23T11:59:28.931Z,100689.44
2022-10-23T12:01:59.079Z,100682.06
2022-10-23T12:04:31.632Z,100684.28
2022-10-23T12:07:02.756Z,100685.16
2022-10-23T12:09:37.352Z,100692.16
2022-10-23T12:12:17.887Z,100695.88
2022-10-23T12:14:46.905Z,100684.91
2022-10-23T12:17:36.895Z,100680.06
2022-10-23T12:20:23.760Z,100671.78
2022-10-23T12:23:04.069Z,100673.00
2022-10-23T12:25:44.485Z,100666.56
2022-10-23T12:28:25.716Z,100645.91
2022-10-23T12:31:00.408Z,100641.28
2022-10-23T12:33:34.136Z,100633.78
2022-10-23T12:36:17.868Z,100639.16
2022-10-23T12:38:49.726Z,100635.25
2022-10-23T12:41:20.103Z,100632.22
2022-10-23T12:43:53.919Z,100632.13
2022-10-23T12:46:32.461Z,100624.63
2022-10-23T12:49:01.145Z,100624.16
2022-10-23T12:51:30.334Z,100619.69
2022-10-23T12:53:59.469Z,100622.00
2022-10-23T12:56:29.489Z,100618.13
2022-10-23T12:59:01.394Z,100610.41
2022-10-23T13:01:30.973Z,100600.56
2022-10-23T13:04:03.575Z,100592.16
2022-10-23T13:06:31.309Z,100586.00
2022-10-23T13:09:00.512Z,100578.25
2022-10-23T13:11:29.568Z,100573.75
2022-10-23T13:13:57.201Z,100573.75
2022-10-23T13:16:26.947Z,100583.31
2022-10-23T13:18:54.610Z,100581.78
2022-10-23T13:21:23.294Z,100574.34
2022-10-23T13:23:51.719Z,100565.06
2022-10-23T13:26:49.920Z,100567.75
2022-10-23T13:29:21.698Z,100551.75
2022-10-23T13:31:50.016Z,100543.47
2022-10-23T13:34:23.058Z,100536.72
2022-10-23T13:37:02.487Z,100520.03
2022-10-23T13:39:33.028Z,100525.63
2022-10-23T13:42:13.380Z,100517.13
2022-10-23T13:44:41.615Z,100518.22
2022-10-23T13:47:13.389Z,100508.34
2022-10-23T13:49:41.100Z,100507.31
2022-10-23T13:52:10.704Z,100498.50
2022-10-23T13:54:38.318Z,100495.97
2022-10-23T13:57:13.799Z,100483.31
2022-10-23T13:59:41.442Z,100491.78
2022-10-23T14:02:19.010Z,100488.31
2022-10-23T14:04:47.213Z,100478.38
2022-10-23T14:07:15.109Z,100476.28
2022-10-23T14:09:42.738Z,100483.88
2022-10-23T14:12:13.520Z,100477.66
2022-10-23T14:14:41.205Z,100481.81
2022-10-23T14:17:08.855Z,100481.28
2022-10-23T14:22:04.963Z,100471.25
2022-10-23T14:24:32.436Z,100465.88
2022-10-23T14:27:00.053Z,100461.41
2022-10-23T14:29:29.162Z,100457.28
2022-10-23T14:31:56.765Z,100459.59
2022-10-23T14:34:24.385Z,100466.13
2022-10-23T14:37:07.496Z,100470.69
2022-10-23T14:39:36.565Z,100471.91
2022-10-23T14:42:04.207Z,100466.34
2022-10-23T14:44:33.041Z,100456.16
2022-10-23T14:47:00.826Z,100458.38
2022-10-23T14:49:28.450Z,100470.78
2022-10-23T14:51:56.129Z,100463.34
2022-10-23T14:54:23.625Z,100467.03
2022-10-23T14:56:51.253Z,100461.16
2022-10-23T14:59:18.884Z,100467.56
2022-10-23T15:01:48.624Z,100465.56
2022-10-23T15:04:17.029Z,100452.44
2022-10-23T15:06:46.651Z,100436.28
2022-10-23T15:09:14.902Z,100432.75
2022-10-23T15:11:42.754Z,100433.06
2022-10-23T15:14:10.389Z,100436.00
2022-10-23T15:16:41.456Z,100432.00
2022-10-23T15:19:17.371Z,100433.00
2022-10-23T15:21:46.735Z,100421.41
2022-10-23T15:24:14.654Z,100426.28
2022-10-23T15:26:43.286Z,100415.88
2022-10-23T15:29:12.149Z,100413.81
2022-10-23T15:31:58.828Z,100405.25
2022-10-23T15:34:33.177Z,100398.34
2022-10-23T15:37:01.045Z,100392.88
2022-10-23T15:39:48.344Z,100388.56
2022-10-23T15:42:15.991Z,100392.66
2022-10-23T15:44:43.615Z,100385.28
2022-10-23T15:47:11.336Z,100385.56
2022-10-23T15:49:40.473Z,100390.06
2022-10-23T15:54:36.686Z,100380.72
2022-10-23T15:57:05.498Z,100371.13
2022-10-23T15:59:33.432Z,100374.91
2022-10-23T16:02:01.185Z,100362.25
2022-10-23T16:04:29.530Z,100355.31
2022-10-23T16:06:58.514Z,100349.16
2022-10-23T16:09:26.147Z,100339.59
2022-10-23T16:11:53.782Z,100334.94
2022-10-23T16:14:21.441Z,100339.06
2022-10-23T16:16:49.156Z,100345.09
2022-10-23T16:19:16.586Z,100346.25
2022-10-23T16:21:44.229Z,100342.00
2022-10-23T16:24:13.384Z,100350.38
2022-10-23T16:26:41.984Z,100349.19
2022-10-23T16:29:10.282Z,100341.81
2022-10-23T16:31:38.157Z,100351.75
2022-10-23T16:34:06.728Z,100346.75
2022-10-23T16:36:35.406Z,100342.53
2022-10-23T16:39:03.743Z,100332.94
2022-10-23T16:41:32.805Z,100335.50
2022-10-23T16:46:36.347Z,100333.88
2022-10-23T16:49:04.540Z,100329.66
2022-10-23T16:51:42.910Z,100323.41
2022-10-23T16:54:11.235Z,100324.50
2022-10-23T16:59:47.563Z,100328.66
2022-10-23T17:02:18.669Z,100332.78
2022-10-23T17:05:25.315Z,100335.81
2022-10-23T17:07:53.148Z,100328.13
2022-10-23T17:10:21.021Z,100325.78
2022-10-23T17:12:51.973Z,100347.88
2022-10-23T17:15:22.266Z,100337.88
2022-10-23T17:17:50.103Z,100344.00
2022-10-23T17:20:18.091Z,100344.34
2022-10-23T17:22:46.060Z,100338.63
2022-10-23T17:25:13.822Z,100339.78
2022-10-23T17:27:42.636Z,100343.22
2022-10-23T17:30:12.867Z,100325.53
2022-10-23T17:32:42.578Z,100317.03
2022-10-23T17:35:11.545Z,100330.00
2022-10-23T17:37:39.721Z,100326.22
2022-10-23T17:40:08.733Z,100330.00
2022-10-23T17:42:36.853Z,100330.00
2022-10-23T17:45:05.119Z,100327.00
2022-10-23T17:47:33.361Z,100322.41
2022-10-23T17:50:03.419Z,100328.53
2022-10-23T17:52:31.612Z,100339.34
2022-10-23T17:54:59.646Z,100333.22
2022-10-23T17:57:27.614Z,100311.81
2022-10-23T17:59:55.709Z,100322.56
2022-10-23T18:02:23.863Z,100313.44
2022-10-23T18:04:52.114Z,100313.88
2022-10-23T18:07:24.264Z,100320.44
2022-10-23T18:09:52.476Z,100305.94
2022-10-23T18:12:23.516Z,100310.94
2022-10-23T18:14:53.796Z,100312.06
2022-10-23T18:17:21.946Z,100307.16
2022-10-23T18:23:04.744Z,100314.06
2022-10-23T18:25:32.691Z,100312.94
2022-10-23T18:28:02.480Z,100310.28
2022-10-23T18:30:30.887Z,100300.00
2022-10-23T18:33:00.095Z,100309.25
2022-10-23T18:35:30.702Z,100290.94
2022-10-23T18:37:58.485Z,100289.38
2022-10-23T18:40:28.090Z,100281.00
2022-10-23T18:42:56.370Z,100286.03
2022-10-23T18:45:24.234Z,100290.59
2022-10-23T18:47:52.440Z,100293.72
2022-10-23T18:50:23.502Z,100273.50
2022-10-23T18:52:51.465Z,100263.16
2022-10-23T18:55:19.510Z,100272.75
2022-10-23T18:57:48.783Z,100276.97
2022-10-23T19:00:17.077Z,100276.63
2022-10-23T19:02:47.665Z,100275.84
2022-10-23T19:05:17.972Z,100280.44
2022-10-23T19:07:47.230Z,100278.09
2022-10-23T19:10:18.007Z,100261.25
2022-10-23T19:12:45.919Z,100207.94
2022-10-23T19:15:16.546Z,100215.47
2022-10-23T19:17:44.406Z,100257.00
2022-10-23T19:20:15.559Z,100239.19
2022-10-23T19:22:47.605Z,100236.69
2022-10-23T19:25:20.567Z,100254.38
2022-10-23T19:27:48.930Z,100377.13
2022-10-23T19:30:21.916Z,100257.38
2022-10-23T19:32:51.020Z,100261.53
2022-10-23T19:35:21.289Z,100246.69
2022-10-23T19:37:50.317Z,100263.97
2022-10-23T19:40:18.268Z,100273.00
2022-10-23T19:42:46.116Z,100264.84
2022-10-23T19:45:14.505Z,100274.91
2022-10-23T19:47:45.255Z,100280.00
2022-10-23T19:50:13.646Z,100285.69
2022-10-23T19:52:41.718Z,100290.59
2022-10-23T19:55:10.258Z,100310.28
2022-10-23T19:57:38.277Z,100296.94
2022-10-23T20:00:08.490Z,100312.88
2022-10-23T20:02:36.971Z,100315.91
2022-10-23T20:05:07.674Z,100324.66
2022-10-23T20:07:36.079Z,100310.88
2022-10-23T20:10:04.817Z,100315.78
2022-10-23T20:12:32.739Z,100320.69
2022-10-23T20:15:00.665Z,100327.91
2022-10-23T20:17:28.329Z,100335.91
2022-10-23T20:19:56.591Z,100332.25
2022-10-23T20:22:25.639Z,100341.25
2022-10-23T20:24:53.503Z,100339.81
2022-10-23T20:27:21.190Z,100334.47
2022-10-23T20:29:49.238Z,100342.03
2022-10-23T20:32:17.400Z,100354.19
2022-10-23T20:34:45.070Z,100353.63
2022-10-23T20:37:12.686Z,100367.53
2022-10-23T20:39:41.774Z,100369.66
2022-10-23T20:42:09.496Z,100365.00
2022-10-23T20:44:37.130Z,100372.09
2022-10-23T20:47:04.823Z,100364.63
2022-10-23T20:49:32.463Z,100373.66
2022-10-23T20:52:00.141Z,100383.44
2022-10-23T20:54:28.684Z,100392.31
2022-10-23T20:56:58.804Z,100400.31
2022-10-23T20:59:26.920Z,100387.97
2022-10-23T21:01:56.420Z,100379.41
2022-10-23T21:04:27.486Z,100405.63
2022-10-23T21:07:14.577Z,100373.50
2022-10-23T21:09:42.622Z,100375.72
2022-10-23T21:12:11.642Z,100370.25
2022-10-23T21:14:39.306Z,100384.72
2022-10-23T21:17:08.493Z,100392.28
2022-10-23T21:19:36.569Z,100398.72
2022-10-23T21:22:04.469Z,100399.06
2022-10-23T21:24:31.941Z,100379.16
2022-10-23T21:26:59.597Z,100379.78
2022-10-23T21:29:28.689Z,100375.44
2022-10-23T21:31:58.799Z,100376.09
2022-10-23T21:34:27.628Z,100379.09
2022-10-23T21:39:43.530Z,100371.72
2022-10-23T21:42:11.368Z,100367.06
2022-10-23T21:44:40.432Z,100363.91
2022-10-23T21:47:08.170Z,100375.38
2022-10-23T21:49:35.826Z,100384.81
2022-10-23T21:52:03.503Z,100390.16
2022-10-23T21:54:31.089Z,100381.34
2022-10-23T21:56:58.736Z,100383.28
2022-10-23T21:59:30.279Z,100393.16
2022-10-23T22:02:00.898Z,100386.69
2022-10-23T22:04:28.573Z,100388.16
2022-10-23T22:06:56.241Z,100399.59
2022-10-23T22:09:24.598Z,100395.03
2022-10-23T22:11:53.271Z,100397.69
2022-10-23T22:14:21.798Z,100401.16
2022-10-23T22:16:50.090Z,100377.59
2022-10-23T22:19:21.306Z,100370.81
2022-10-23T22:21:50.139Z,100380.72
2022-10-23T22:24:18.491Z,100381.34
2022-10-23T22:26:49.202Z,100374.47
2022-10-23T22:29:20.480Z,100371.38
2022-10-23T22:31:49.774Z,100383.47
2022-10-23T22:34:27.082Z,100393.69
2022-10-23T22:37:10.081Z,100375.78
2022-10-23T22:39:38.378Z,100371.69
2022-10-23T22:42:06.081Z,100374.34
2022-10-23T22:44:33.734Z,100382.03
2022-10-23T22:47:01.338Z,100365.59
2022-10-23T22:49:30.556Z,100375.13
2022-10-23T22:51:58.174Z,100365.25
2022-10-23T22:54:25.871Z,100368.25
2022-10-23T22:56:53.522Z,100356.00
2022-10-23T22:59:21.162Z,100364.78
2022-10-23T23:01:50.201Z,100356.00
2022-10-23T23:04:37.398Z,100359.47
2022-10-23T23:07:08.023Z,100348.44
2022-10-23T23:09:38.289Z,100356.59
2022-10-23T23:12:06.135Z,100352.81
2022-10-23T23:14:33.773Z,100351.72
2022-10-23T23:17:01.441Z,100347.03
2022-10-23T23:19:29.057Z,100338.44
2022-10-23T23:21:57.786Z,100331.41
2022-10-23T23:24:27.244Z,100350.31
2022-10-23T23:26:54.885Z,100336.06
2022-10-23T23:29:22.648Z,100327.16
2022-10-23T23:31:50.370Z,100327.50
2022-10-23T23:34:18.053Z,100330.38
2022-10-23T23:36:45.724Z,100332.25
2022-10-23T23:39:13.351Z,100327.56
2022-10-23T23:41:42.380Z,100328.00
2022-10-23T23:44:10.593Z,100311.03
2022-10-23T23:46:38.196Z,100308.94
2022-10-23T23:49:05.851Z,100310.63
2022-10-23T23:51:33.498Z,100308.09
2022-10-23T23:54:01.136Z,100303.31
2022-10-23T23:56:29.105Z,100305.78
2022-10-23T23:58:58.467Z,100303.69
